Time;durP1;ratioP1;P1;durP2;ratioP2;P2;SDS_P1;SDS_P2;PMS_P1;PMS_P2;Temp;Humidity;BMP_temperature;BMP_pressure;BME280_temperature;BME280_humidity;BME280_pressure;Samples;Min_cycle;Max_cycle;Signal;HPM_P1;HPM_P2
2022/03/21 00:01:45;;;;;;;15.00;9.52;;;;;;;8.43;35.03;97952.03;4770769;30;20146;-80
2022/03/21 00:04:15;;;;;;;13.95;9.90;;;;;;;8.41;34.13;97958.34;4770984;30;20059;-80
2022/03/21 00:06:46;;;;;;;14.32;9.52;;;;;;;8.40;33.84;97960.13;4771104;30;20150;-80
2022/03/21 00:09:16;;;;;;;12.23;8.48;;;;;;;8.38;33.45;97963.78;4771108;30;20063;-80
2022/03/21 00:11:46;;;;;;;12.07;9.10;;;;;;;8.33;33.35;97955.56;4770772;30;20056;-80
2022/03/21 00:14:16;;;;;;;13.25;8.98;;;;;;;8.27;32.97;97963.91;4770989;30;20117;-80
2022/03/21 00:16:46;;;;;;;12.73;8.98;;;;;;;8.17;33.49;97967.28;4770935;30;20064;-80
2022/03/21 00:19:16;;;;;;;12.32;9.20;;;;;;;8.13;33.59;97965.91;4770674;30;20060;-79
2022/03/21 00:21:46;;;;;;;12.95;9.07;;;;;;;8.10;33.37;97962.75;4770890;30;20060;-80
2022/03/21 00:24:18;;;;;;;12.35;9.32;;;;;;;8.08;33.43;97962.88;4770375;30;20089;-80
2022/03/21 00:26:48;;;;;;;15.07;9.95;;;;;;;8.02;33.75;97969.47;4770631;30;20503;-80
2022/03/21 00:29:17;;;;;;;14.23;9.13;;;;;;;7.95;34.06;97972.69;4770801;30;20142;-80
2022/03/21 00:31:47;;;;;;;13.20;8.88;;;;;;;7.91;33.49;97966.13;4770596;30;20109;-80
2022/03/21 00:34:17;;;;;;;12.45;8.85;;;;;;;7.86;33.84;97965.69;4770578;30;20055;-80
2022/03/21 00:36:47;;;;;;;14.43;9.68;;;;;;;7.84;34.19;97971.00;4770285;30;20427;-80
2022/03/21 00:39:19;;;;;;;14.55;9.02;;;;;;;7.82;34.16;97971.13;4770504;30;20083;-80
2022/03/21 00:41:48;;;;;;;12.23;9.88;;;;;;;7.80;34.01;97980.00;4770606;30;20060;-80
2022/03/21 00:44:17;;;;;;;12.38;8.82;;;;;;;7.79;34.08;97976.59;4770772;30;20146;-80
2022/03/21 00:46:47;;;;;;;11.15;8.95;;;;;;;7.79;34.31;97971.41;4770387;30;20109;-80
2022/03/21 00:49:17;;;;;;;12.15;8.20;;;;;;;7.79;34.38;97963.63;4770725;30;20071;-80
2022/03/21 00:51:47;;;;;;;12.60;8.68;;;;;;;7.81;33.95;97968.69;4770033;30;20576;-80
2022/03/21 00:54:16;;;;;;;13.32;9.85;;;;;;;7.78;33.99;97972.38;4770173;30;20512;-80
2022/03/21 00:56:47;;;;;;;14.85;9.68;;;;;;;7.76;34.14;97971.69;4770146;30;20064;-80
2022/03/21 00:59:17;;;;;;;13.27;9.50;;;;;;;7.69;33.75;97978.31;4782205;30;20051;-80
2022/03/21 01:01:45;;;;;;;13.48;8.93;;;;;;;7.64;34.77;97980.50;4804127;24;20042;-80
2022/03/21 01:04:13;;;;;;;12.55;8.80;;;;;;;7.62;34.52;97967.63;4850825;29;20084;-82
2022/03/21 01:06:41;;;;;;;12.40;9.52;;;;;;;7.64;34.59;97970.09;4851418;29;20050;-81
2022/03/21 01:09:12;;;;;;;12.50;9.13;;;;;;;7.63;34.18;97973.63;4851313;29;20130;-81
2022/03/21 01:11:39;;;;;;;12.82;9.57;;;;;;;7.61;34.00;97965.19;4848458;29;20050;-81
2022/03/21 01:14:09;;;;;;;14.77;8.73;;;;;;;7.58;33.97;97971.44;4835263;29;20118;-80
2022/03/21 01:16:37;;;;;;;11.25;8.23;;;;;;;7.52;34.06;97960.75;4834974;29;20065;-82
2022/03/21 01:19:06;;;;;;;11.82;8.95;;;;;;;7.50;33.92;97970.44;4834663;29;20090;-81
2022/03/21 01:21:34;;;;;;;13.73;10.13;;;;;;;7.49;34.46;97974.00;4833214;29;20059;-81
2022/03/21 01:24:02;;;;;;;10.82;8.48;;;;;;;7.48;34.49;97964.53;4831858;29;20054;-81
2022/03/21 01:26:30;;;;;;;17.63;9.43;;;;;;;7.49;34.46;97961.00;4832070;29;20054;-81
2022/03/21 01:28:58;;;;;;;12.93;8.50;;;;;;;7.49;34.34;97966.19;4832740;29;20042;-81
2022/03/21 01:31:27;;;;;;;11.85;9.32;;;;;;;7.47;34.02;97962.91;4832639;29;20466;-82
2022/03/21 01:33:55;;;;;;;11.48;8.82;;;;;;;7.47;34.03;97965.50;4832306;29;20098;-81
2022/03/21 01:36:23;;;;;;;11.57;8.52;;;;;;;7.45;34.13;97973.41;4831477;29;20065;-82
2022/03/21 01:38:51;;;;;;;12.32;8.85;;;;;;;7.40;34.11;97973.81;4831628;29;20051;-82
2022/03/21 01:41:19;;;;;;;12.32;8.60;;;;;;;7.37;34.07;97968.06;4831187;29;20078;-81
2022/03/21 01:43:58;;;;;;;11.70;8.68;;;;;;;7.34;34.16;97974.31;4830769;29;20115;-81
2022/03/21 01:46:28;;;;;;;13.52;8.93;;;;;;;7.30;34.56;97978.09;4830904;29;20082;-81
2022/03/21 01:48:57;;;;;;;12.82;8.70;;;;;;;7.25;34.38;97976.84;4831269;29;20122;-81
2022/03/21 01:51:26;;;;;;;13.85;8.10;;;;;;;7.18;34.65;97971.34;4830973;29;20085;-82
2022/03/21 01:56:42;;;;;;;10.60;7.65;;;;;;;7.12;34.46;97972.66;4829887;29;20058;-81
2022/03/21 01:59:10;;;;;;;11.82;8.40;;;;;;;7.10;34.37;97971.97;4830772;29;20058;-82
2022/03/21 02:01:41;;;;;;;15.27;8.90;;;;;;;7.09;34.47;97972.13;4830313;29;20057;-81
2022/03/21 02:04:10;;;;;;;10.60;7.88;;;;;;;7.05;34.80;97979.31;4830473;29;20429;-81
2022/03/21 02:06:38;;;;;;;9.65;8.30;;;;;;;6.99;35.06;97966.84;4829771;29;20058;-81
2022/03/21 02:09:08;;;;;;;16.65;8.38;;;;;;;6.98;34.87;97976.41;4830011;29;20086;-81
2022/03/21 02:11:36;;;;;;;13.38;8.95;;;;;;;6.95;34.97;97978.41;4827348;29;20055;-82
2022/03/21 02:14:05;;;;;;;10.75;8.30;;;;;;;6.89;34.81;97990.13;4827398;29;20127;-82
2022/03/21 02:16:35;;;;;;;11.52;8.40;;;;;;;6.88;34.76;97982.47;4826410;29;20590;-81
2022/03/21 02:19:08;;;;;;;13.82;9.32;;;;;;;6.89;34.81;97986.72;4827738;29;20061;-81
2022/03/21 02:21:47;;;;;;;11.07;8.35;;;;;;;6.89;34.75;97982.34;4827633;29;20071;-82
2022/03/21 02:24:25;;;;;;;12.05;9.02;;;;;;;6.86;34.81;97985.16;4832390;29;20119;-81
2022/03/21 02:26:55;;;;;;;14.70;9.32;;;;;;;6.77;34.88;97980.72;4830317;29;20063;-82
2022/03/21 02:29:26;;;;;;;11.73;8.77;;;;;;;6.68;34.92;97978.88;4827137;29;20061;-82
2022/03/21 02:31:54;;;;;;;13.32;8.27;;;;;;;6.57;34.94;97972.78;4827553;29;20122;-82
2022/03/21 02:34:25;;;;;;;12.85;8.48;;;;;;;6.54;35.35;97975.63;4832060;29;20047;-81
2022/03/21 02:36:56;;;;;;;10.60;8.93;;;;;;;6.55;35.13;97973.84;4826949;29;20135;-81
2022/03/21 02:39:24;;;;;;;13.10;9.18;;;;;;;6.51;35.49;97973.25;4825161;29;20067;-81
2022/03/21 02:41:52;;;;;;;11.13;8.90;;;;;;;6.48;35.46;97973.53;4825327;29;20111;-81
2022/03/21 02:44:22;;;;;;;11.68;9.02;;;;;;;6.45;35.42;97971.19;4825345;29;20118;-81
2022/03/21 02:46:49;;;;;;;12.00;8.32;;;;;;;6.43;35.59;97967.03;4825145;29;20115;-81
2022/03/21 02:49:17;;;;;;;14.07;9.35;;;;;;;6.38;35.49;97972.59;4825627;29;20062;-82
2022/03/21 02:51:46;;;;;;;11.27;8.80;;;;;;;6.40;35.71;97981.88;4826035;29;20054;-82
2022/03/21 02:54:18;;;;;;;14.32;8.80;;;;;;;6.38;35.85;97978.63;4824785;29;20059;-81
2022/03/21 02:56:46;;;;;;;13.00;8.82;;;;;;;6.37;35.77;97978.72;4825537;29;20089;-82
2022/03/21 02:59:16;;;;;;;13.25;8.70;;;;;;;6.38;35.73;97981.22;4825708;29;20071;-80
2022/03/21 03:01:45;;;;;;;13.77;9.13;;;;;;;6.37;35.79;97984.72;4824816;29;20054;-81
2022/03/21 03:04:13;;;;;;;14.15;8.52;;;;;;;6.37;35.56;97976.16;4825742;29;20051;-81
2022/03/21 03:06:40;;;;;;;13.48;9.82;;;;;;;6.35;35.88;97981.44;4824457;29;20122;-82
2022/03/21 03:09:08;;;;;;;14.02;8.93;;;;;;;6.35;36.17;97978.03;4825074;29;20434;-81
2022/03/21 03:11:37;;;;;;;11.30;8.00;;;;;;;6.34;35.63;97979.81;4824857;29;20061;-81
2022/03/21 03:14:05;;;;;;;11.15;8.98;;;;;;;6.31;35.96;97976.63;4824359;29;20585;-82
2022/03/21 03:16:34;;;;;;;13.50;9.32;;;;;;;6.28;36.08;97987.25;4824397;29;20074;-81
2022/03/21 03:19:04;;;;;;;11.73;8.90;;;;;;;6.25;36.15;97984.88;4824025;29;20062;-82
2022/03/21 03:21:35;;;;;;;13.52;8.60;;;;;;;6.21;35.91;97986.91;4823767;29;20078;-81
2022/03/21 03:24:04;;;;;;;12.18;9.00;;;;;;;6.15;36.00;97995.97;4823589;29;20054;-82
2022/03/21 03:26:31;;;;;;;15.23;8.88;;;;;;;6.12;36.47;97991.03;4823324;29;20065;-81
2022/03/21 03:28:59;;;;;;;13.68;8.43;;;;;;;6.11;36.51;97991.97;4823883;29;20055;-82
2022/03/21 03:31:27;;;;;;;13.95;8.75;;;;;;;6.08;36.52;97989.63;4823014;29;20406;-81
2022/03/21 03:33:55;;;;;;;14.05;9.05;;;;;;;6.05;36.35;97989.84;4823803;29;20055;-81
2022/03/21 03:36:25;;;;;;;13.13;8.70;;;;;;;6.01;36.53;97992.78;4822452;29;20110;-81
2022/03/21 03:38:53;;;;;;;13.15;8.82;;;;;;;5.93;36.52;97988.19;4822626;29;20061;-81
2022/03/21 03:41:20;;;;;;;12.45;8.70;;;;;;;5.87;36.84;97996.41;4823340;29;20077;-82
2022/03/21 03:43:49;;;;;;;13.57;8.82;;;;;;;5.82;36.94;98004.53;4822881;29;20127;-82
2022/03/21 03:46:17;;;;;;;15.80;9.10;;;;;;;5.82;37.13;98003.72;4821399;29;20051;-81
2022/03/21 03:48:46;;;;;;;12.75;9.05;;;;;;;5.82;37.21;97995.97;4822599;29;20058;-81
2022/03/21 03:51:14;;;;;;;12.55;8.82;;;;;;;5.80;37.21;97996.06;4822782;29;20068;-82
2022/03/21 03:53:43;;;;;;;12.77;9.23;;;;;;;5.80;37.22;98006.41;4822527;29;20050;-82
2022/03/21 03:56:11;;;;;;;12.98;8.40;;;;;;;5.78;37.05;98014.31;4822735;29;20069;-81
2022/03/21 03:58:39;;;;;;;11.75;8.57;;;;;;;5.77;37.19;98009.22;4822182;29;20122;-82
2022/03/21 04:01:07;;;;;;;13.48;9.13;;;;;;;5.75;37.38;98014.53;4822276;29;20081;-81
2022/03/21 04:03:47;;;;;;;13.00;8.95;;;;;;;5.76;37.21;98026.53;4821369;29;20147;-81
2022/03/21 04:06:17;;;;;;;11.02;8.43;;;;;;;5.75;37.38;98035.25;4819593;29;20094;-81
2022/03/21 04:08:47;;;;;;;14.05;8.82;;;;;;;5.74;37.54;98028.41;4821269;29;20051;-82
2022/03/21 04:11:15;;;;;;;11.20;8.90;;;;;;;5.72;37.46;98025.13;4821143;29;20061;-81
2022/03/21 04:13:43;;;;;;;14.55;9.10;;;;;;;5.66;37.54;98028.16;4820506;29;20051;-82
2022/03/21 04:16:11;;;;;;;13.48;9.02;;;;;;;5.63;37.40;98025.81;4820037;29;20060;-81
2022/03/21 04:18:39;;;;;;;13.80;9.82;;;;;;;5.58;37.12;98033.13;4820009;29;20055;-81
2022/03/21 04:21:27;;;;;;;11.50;8.63;;;;;;;5.55;37.75;98028.16;4820046;29;20058;-81
2022/03/21 04:23:58;;;;;;;12.00;8.57;;;;;;;5.53;37.38;98041.22;4820158;29;20145;-82
2022/03/21 04:26:26;;;;;;;16.08;9.68;;;;;;;5.50;37.52;98045.78;4819021;29;20088;-81
2022/03/21 04:28:55;;;;;;;10.88;8.27;;;;;;;5.48;37.66;98047.66;4819508;29;20090;-82
2022/03/21 04:31:23;;;;;;;13.40;9.05;;;;;;;5.44;37.63;98056.59;4819399;29;20088;-81
2022/03/21 04:33:51;;;;;;;11.25;8.45;;;;;;;5.39;38.13;98053.53;4819350;29;20061;-82
2022/03/21 04:36:19;;;;;;;11.82;8.55;;;;;;;5.39;37.99;98061.31;4817831;29;20206;-81
2022/03/21 04:38:47;;;;;;;12.52;9.02;;;;;;;5.41;38.14;98064.59;4819460;29;20154;-82
2022/03/21 04:41:17;;;;;;;12.38;9.45;;;;;;;5.43;38.12;98065.31;4819989;29;20119;-82
2022/03/21 04:43:44;;;;;;;12.35;8.43;;;;;;;5.42;38.14;98063.66;4819606;29;20119;-81
2022/03/21 04:46:12;;;;;;;13.60;9.45;;;;;;;5.37;38.27;98069.16;4818420;29;20430;-81
2022/03/21 04:48:40;;;;;;;13.10;9.27;;;;;;;5.32;38.81;98066.91;4819021;29;20054;-82
2022/03/21 04:51:08;;;;;;;12.32;8.88;;;;;;;5.23;38.38;98075.34;4818905;29;20051;-82
2022/03/21 04:53:36;;;;;;;17.02;9.85;;;;;;;5.13;38.84;98079.53;4818930;29;20082;-81
2022/03/21 04:56:04;;;;;;;15.45;9.10;;;;;;;5.02;38.81;98077.72;4819175;29;20082;-81
2022/03/21 04:58:33;;;;;;;16.02;10.20;;;;;;;4.93;39.41;98076.63;4818388;29;20069;-81
2022/03/21 05:01:01;;;;;;;14.10;9.50;;;;;;;4.90;39.27;98074.28;4817752;29;20273;-81
2022/03/21 05:03:29;;;;;;;14.23;9.90;;;;;;;4.90;39.62;98076.84;4817691;29;20111;-81
2022/03/21 05:05:58;;;;;;;11.05;8.73;;;;;;;4.94;39.36;98080.03;4821695;29;20062;-82
2022/03/21 05:08:26;;;;;;;13.73;9.18;;;;;;;4.93;39.39;98074.03;4829405;29;20041;-81
2022/03/21 05:10:54;;;;;;;14.38;9.82;;;;;;;4.91;39.15;98070.75;4826917;29;20059;-82
2022/03/21 05:13:21;;;;;;;13.90;9.90;;;;;;;4.88;39.38;98065.78;4819440;29;20142;-81
2022/03/21 05:15:51;;;;;;;13.48;9.00;;;;;;;4.89;39.80;98067.44;4821627;29;20053;-81
2022/03/21 05:18:18;;;;;;;22.10;10.02;;;;;;;4.92;39.15;98069.81;4828865;29;20042;-82
2022/03/21 05:20:46;;;;;;;16.90;11.13;;;;;;;4.92;39.53;98072.41;4821669;29;20050;-81
2022/03/21 05:31:30;;;;;;;15.60;10.25;;;;;;;4.53;40.46;98070.88;4816060;29;20522;-81
2022/03/21 05:36:44;;;;;;;18.77;10.65;;;;;;;4.56;39.93;98067.25;4815053;29;20058;-81
2022/03/21 05:39:11;;;;;;;17.58;9.80;;;;;;;4.47;39.98;98074.72;4815059;29;20062;-81
2022/03/21 05:41:39;;;;;;;16.88;9.95;;;;;;;4.34;40.25;98066.16;4814933;29;20533;-81
2022/03/21 05:44:07;;;;;;;16.60;10.30;;;;;;;4.24;41.03;98071.16;4815364;29;20061;-81
2022/03/21 05:46:37;;;;;;;15.75;10.27;;;;;;;4.15;41.31;98082.09;4816023;29;20114;-81
2022/03/21 05:49:05;;;;;;;14.65;10.07;;;;;;;4.03;41.46;98083.78;4817528;29;20054;-81
2022/03/21 05:51:35;;;;;;;15.90;10.85;;;;;;;3.97;41.88;98089.34;4818860;29;20054;-81
2022/03/21 05:54:05;;;;;;;17.20;10.10;;;;;;;3.92;42.05;98099.16;4818788;29;20047;-82
2022/03/21 05:56:34;;;;;;;13.48;9.38;;;;;;;3.85;42.18;98100.50;4816697;29;20051;-82
2022/03/21 06:00:20;;;;;;;17.25;11.20;;;;;;;3.83;42.46;98104.94;4816432;29;20062;-81
2022/03/21 06:01:58;;;;;;;15.93;9.27;;;;;;;3.84;42.55;98094.50;4815849;29;20086;-81
2022/03/21 06:04:25;;;;;;;15.98;10.40;;;;;;;3.85;42.04;98095.34;4818895;29;20057;-81
2022/03/21 06:06:53;;;;;;;15.55;10.30;;;;;;;3.83;42.14;98090.28;4817510;29;20069;-81
2022/03/21 06:09:21;;;;;;;14.80;10.25;;;;;;;3.82;42.35;98087.78;4818850;29;20058;-82
2022/03/21 06:11:49;;;;;;;17.10;11.35;;;;;;;3.81;42.40;98088.72;4819429;29;20065;-81
2022/03/21 06:14:18;;;;;;;16.95;11.13;;;;;;;3.84;41.97;98094.50;4817780;29;20062;-81
2022/03/21 06:16:46;;;;;;;15.90;10.20;;;;;;;3.94;41.91;98092.13;4816356;29;20051;-82
2022/03/21 06:19:15;;;;;;;15.48;8.98;;;;;;;4.01;41.72;98095.94;4816685;29;20054;-82
2022/03/21 06:21:43;;;;;;;14.25;10.07;;;;;;;4.07;41.30;98105.06;4816749;29;20055;-81
2022/03/21 06:24:12;;;;;;;18.58;10.95;;;;;;;4.04;41.64;98100.91;4816440;29;20076;-81
2022/03/21 06:26:40;;;;;;;15.85;9.75;;;;;;;4.06;41.72;98100.81;4816136;29;20428;-81
2022/03/21 06:29:08;;;;;;;18.80;11.50;;;;;;;4.13;41.70;98102.88;4816698;29;20054;-81
2022/03/21 06:31:36;;;;;;;14.70;9.85;;;;;;;4.25;41.25;98113.31;4816557;29;20065;-81
2022/03/21 06:34:04;;;;;;;17.63;10.55;;;;;;;4.33;41.54;98116.19;4816354;29;20078;-81
2022/03/21 06:36:33;;;;;;;16.65;10.27;;;;;;;4.43;40.82;98119.78;4815412;29;20054;-81
2022/03/21 06:39:01;;;;;;;18.25;11.18;;;;;;;4.51;40.88;98120.09;4816976;29;20055;-81
2022/03/21 06:41:28;;;;;;;21.60;10.68;;;;;;;4.54;41.06;98114.69;4816257;29;20059;-81
2022/03/21 06:43:56;;;;;;;15.32;10.77;;;;;;;4.59;41.01;98111.81;4817442;29;20110;-81
2022/03/21 06:46:24;;;;;;;15.57;9.98;;;;;;;4.65;40.89;98113.94;4816198;29;20055;-81
2022/03/21 06:48:51;;;;;;;12.80;9.48;;;;;;;4.72;40.61;98116.91;4816892;29;20051;-81
2022/03/21 06:51:25;;;;;;;16.67;9.52;;;;;;;4.81;40.62;98115.44;4818013;29;20051;-82
2022/03/21 06:53:54;;;;;;;14.02;9.32;;;;;;;4.88;40.64;98120.09;4818289;29;20110;-81
2022/03/21 06:56:22;;;;;;;19.30;9.05;;;;;;;5.01;40.06;98112.28;4816659;29;20066;-81
2022/03/21 06:58:49;;;;;;;15.10;8.65;;;;;;;5.14;39.56;98117.41;4819516;29;20055;-82
2022/03/21 07:01:17;;;;;;;12.90;8.73;;;;;;;5.23;39.22;98108.19;4826979;29;20114;-81
2022/03/21 07:03:46;;;;;;;15.48;8.90;;;;;;;5.31;39.07;98109.28;4896168;24;20062;-80
2022/03/21 07:06:14;;;;;;;11.85;8.80;;;;;;;5.41;39.03;98108.59;4864015;29;20077;-80
2022/03/21 07:08:42;;;;;;;13.70;9.48;;;;;;;5.44;38.75;98109.19;4864039;29;20049;-80
2022/03/21 07:11:13;;;;;;;11.10;8.77;;;;;;;5.46;38.43;98116.84;4864249;29;20119;-80
2022/03/21 07:13:42;;;;;;;13.80;9.57;;;;;;;5.46;38.42;98119.41;4863958;29;20057;-80
2022/03/21 07:16:16;;;;;;;12.05;8.50;;;;;;;5.50;38.10;98115.69;4863436;29;20137;-79
2022/03/21 07:18:44;;;;;;;17.30;10.45;;;;;;;5.55;38.37;98118.75;4863595;29;20081;-79
2022/03/21 07:21:15;;;;;;;17.17;10.43;;;;;;;5.63;37.94;98116.41;4864452;29;20057;-79
2022/03/21 07:23:44;;;;;;;11.63;8.40;;;;;;;5.75;37.75;98118.13;4865596;29;20054;-80
2022/03/21 07:26:14;;;;;;;12.40;8.60;;;;;;;5.86;37.48;98119.06;4865763;29;20057;-80
2022/03/21 07:28:43;;;;;;;13.07;9.30;;;;;;;5.97;37.67;98119.13;4875225;29;20041;-80
2022/03/21 07:31:32;;;;;;;11.80;8.63;;;;;;;6.09;37.23;98110.41;4883768;29;20072;-80
2022/03/21 07:34:02;;;;;;;15.52;9.85;;;;;;;6.19;37.39;98115.75;4883873;29;20034;-80
2022/03/21 07:36:31;;;;;;;14.45;9.48;;;;;;;6.24;37.39;98123.16;4872275;29;20144;-80
2022/03/21 07:39:01;;;;;;;14.35;8.85;;;;;;;6.33;36.98;98125.03;4868438;29;20049;-80
2022/03/21 07:41:33;;;;;;;12.88;9.18;;;;;;;6.37;36.57;98121.28;4868447;29;20062;-80
2022/03/21 07:44:06;;;;;;;13.48;8.63;;;;;;;6.42;37.07;98132.09;4866888;29;20078;-80
2022/03/21 07:49:21;;;;;;;19.77;8.90;;;;;;;6.57;36.34;98132.69;4863337;29;20137;-80
2022/03/21 07:51:50;;;;;;;12.63;9.10;;;;;;;6.66;36.53;98131.97;4862076;29;20049;-80
2022/03/21 07:54:19;;;;;;;18.63;10.27;;;;;;;6.80;36.18;98128.34;4862588;29;20057;-80
2022/03/21 07:56:49;;;;;;;16.73;9.35;;;;;;;6.98;36.45;98139.84;4861979;29;20126;-80
2022/03/21 07:59:18;;;;;;;13.32;8.75;;;;;;;7.18;35.96;98143.44;4862143;29;20053;-80
2022/03/21 08:01:47;;;;;;;14.10;9.80;;;;;;;7.38;35.91;98147.03;4862004;29;20057;-80
2022/03/21 08:04:17;;;;;;;13.55;9.50;;;;;;;7.60;35.68;98134.91;4862120;29;20052;-80
2022/03/21 08:06:46;;;;;;;15.43;9.90;;;;;;;7.86;35.43;98139.75;4862000;29;20060;-79
2022/03/21 08:09:15;;;;;;;11.63;8.75;;;;;;;8.11;36.62;98139.38;4862375;29;20064;-80
2022/03/21 08:11:47;;;;;;;12.30;9.40;;;;;;;8.35;35.55;98141.69;4864599;29;20059;-80
2022/03/21 08:14:17;;;;;;;11.15;9.02;;;;;;;8.57;34.37;98140.72;4870871;29;20428;-80
2022/03/21 08:16:48;;;;;;;12.23;9.55;;;;;;;8.69;34.07;98138.00;4867951;29;20559;-80
2022/03/21 08:19:18;;;;;;;12.27;8.85;;;;;;;8.92;34.71;98138.63;4862777;29;20160;-80
2022/03/21 08:21:49;;;;;;;12.50;9.75;;;;;;;9.15;34.27;98134.84;4861971;29;20053;-80
2022/03/21 08:24:23;;;;;;;15.23;9.38;;;;;;;9.32;33.30;98141.16;4861458;29;20045;-80
2022/03/21 08:26:56;;;;;;;13.38;9.93;;;;;;;9.40;33.21;98143.06;4861800;29;20049;-80
2022/03/21 08:29:31;;;;;;;11.77;8.82;;;;;;;9.55;33.17;98141.72;4861888;29;20074;-80
2022/03/21 08:32:03;;;;;;;14.65;8.63;;;;;;;9.68;32.73;98146.66;4862849;29;20064;-80
2022/03/21 08:34:37;;;;;;;15.13;9.17;;;;;;;9.75;32.83;98142.53;4864561;29;20110;-81
2022/03/21 08:37:13;;;;;;;21.17;9.55;;;;;;;9.88;32.44;98139.63;4863220;29;20296;-80
2022/03/21 08:39:44;;;;;;;11.57;8.45;;;;;;;9.92;32.68;98137.56;4863226;29;20058;-80
2022/03/21 08:42:17;;;;;;;15.27;9.80;;;;;;;9.95;32.51;98142.50;4863792;29;20428;-80
2022/03/21 08:44:52;;;;;;;17.08;9.13;;;;;;;9.93;32.29;98139.19;4863466;29;20053;-80
2022/03/21 08:47:32;;;;;;;15.90;9.82;;;;;;;9.93;32.32;98141.81;4863002;29;20060;-80
2022/03/21 08:50:07;;;;;;;11.57;9.95;;;;;;;9.96;32.55;98146.75;4861682;29;20057;-79
2022/03/21 08:52:41;;;;;;;14.43;9.48;;;;;;;10.00;32.93;98145.53;4862256;29;20140;-81
2022/03/21 08:55:14;;;;;;;13.13;10.23;;;;;;;10.09;32.54;98137.66;4860734;29;20058;-80
2022/03/21 08:57:47;;;;;;;14.77;9.45;;;;;;;10.18;32.73;98141.22;4862404;29;20092;-80
2022/03/21 09:00:31;;;;;;;12.85;9.63;;;;;;;10.37;32.61;98132.56;4860814;29;20470;-80
2022/03/21 09:03:06;;;;;;;15.48;9.18;;;;;;;10.55;32.23;98135.22;4861192;29;20057;-80
2022/03/21 09:05:52;;;;;;;15.75;9.15;;;;;;;10.68;32.08;98140.94;4861375;29;20132;-81
2022/03/21 09:08:52;;;;;;;16.02;8.98;;;;;;;10.97;32.31;98134.75;4862596;29;20070;-80
2022/03/21 09:11:34;;;;;;;13.50;9.32;;;;;;;11.21;31.67;98130.75;4864124;29;20067;-81
2022/03/21 09:14:09;;;;;;;18.00;10.93;;;;;;;11.42;31.37;98133.91;4862934;29;20057;-80
2022/03/21 09:16:45;;;;;;;16.50;9.82;;;;;;;11.60;30.89;98135.69;4862621;29;20110;-81
2022/03/21 09:19:33;;;;;;;13.75;9.98;;;;;;;11.73;30.68;98130.91;4846238;29;20543;-80
2022/03/21 09:22:18;;;;;;;12.48;9.10;;;;;;;11.86;30.58;98128.72;4863730;29;20058;-80
2022/03/21 09:24:58;;;;;;;17.50;9.27;;;;;;;12.11;31.22;98134.13;4864823;29;20105;-81
2022/03/21 09:27:42;;;;;;;18.58;10.00;;;;;;;12.43;30.62;98137.94;4864742;29;20468;-81
2022/03/21 09:30:25;;;;;;;14.23;9.20;;;;;;;12.74;30.44;98138.22;4865213;29;20105;-80
2022/03/21 09:33:02;;;;;;;15.05;9.88;;;;;;;12.97;29.47;98135.88;4863241;29;20061;-80
2022/03/21 09:35:38;;;;;;;13.88;9.90;;;;;;;13.19;29.46;98130.03;4864460;29;20060;-80
2022/03/21 09:38:20;;;;;;;11.95;9.57;;;;;;;13.63;29.74;98130.78;4859828;29;20057;-81
2022/03/21 09:41:06;;;;;;;12.73;9.32;;;;;;;14.20;29.19;98135.97;4864580;29;20057;-81
2022/03/21 10:02:57;;;;;;;12.63;9.93;;;;;;;18.59;24.33;98115.09;4962592;23;20664;-82
2022/03/21 10:05:30;;;;;;;14.88;9.70;;;;;;;19.51;23.10;98124.34;4827592;29;20461;-81
2022/03/21 10:08:13;;;;;;;11.30;9.23;;;;;;;20.65;22.05;98116.38;4826456;29;20054;-82
2022/03/21 10:10:42;;;;;;;10.25;8.90;;;;;;;21.69;21.44;98117.06;4827605;29;20058;-83
2022/03/21 10:13:15;;;;;;;10.48;8.60;;;;;;;22.51;19.76;98114.31;4827295;29;20490;-84
2022/03/21 10:15:45;;;;;;;12.32;8.82;;;;;;;23.35;19.13;98109.19;4899800;23;20037;-81
2022/03/21 10:18:18;;;;;;;11.15;8.23;;;;;;;24.13;18.11;98120.72;4887047;29;20030;-80
2022/03/21 10:20:54;;;;;;;15.35;9.80;;;;;;;24.68;16.94;98113.13;4886788;29;20034;-80
2022/03/21 10:23:29;;;;;;;9.07;8.10;;;;;;;24.99;16.76;98118.25;4886244;29;20040;-80
2022/03/21 10:25:58;;;;;;;11.70;8.95;;;;;;;25.38;16.52;98110.47;4886322;29;20050;-81
2022/03/21 10:28:35;;;;;;;10.65;9.27;;;;;;;25.82;16.42;98114.16;4886654;29;20033;-80
2022/03/21 10:31:05;;;;;;;10.98;9.10;;;;;;;26.13;15.50;98106.66;4886865;29;20076;-80
2022/03/21 10:33:38;;;;;;;12.00;9.30;;;;;;;26.20;15.20;98115.28;4887282;29;20036;-80
2022/03/21 10:36:12;;;;;;;11.93;9.30;;;;;;;26.20;15.87;98107.28;4887306;29;20041;-80
2022/03/21 10:38:41;;;;;;;12.40;9.70;;;;;;;25.92;15.65;98112.72;4886979;29;20037;-80
2022/03/21 10:41:36;;;;;;;10.02;8.98;;;;;;;25.61;15.82;98112.22;4886540;29;20039;-80
2022/03/21 10:44:07;;;;;;;10.30;9.25;;;;;;;25.44;15.99;98110.31;4887007;29;20060;-82
2022/03/21 10:46:37;;;;;;;10.48;9.15;;;;;;;25.19;16.54;98109.81;4886317;29;20049;-82
2022/03/21 10:49:11;;;;;;;10.30;8.60;;;;;;;25.21;15.76;98105.09;4886668;29;20042;-80
2022/03/21 10:51:54;;;;;;;10.63;9.57;;;;;;;25.48;15.11;98111.47;4886748;29;20062;-80
2022/03/21 10:54:39;;;;;;;10.63;9.25;;;;;;;25.42;15.34;98100.94;4886463;29;20038;-80
2022/03/21 10:57:26;;;;;;;11.32;9.30;;;;;;;25.66;15.70;98101.59;4885379;29;20057;-80
2022/03/21 11:00:15;;;;;;;14.02;8.07;;;;;;;26.55;16.04;98102.66;4886465;29;20060;-81
2022/03/21 11:05:48;;;;;;;10.63;8.63;;;;;;;28.98;12.98;98099.84;4884387;23;20054;-80
2022/03/21 11:08:20;;;;;;;12.05;9.30;;;;;;;30.01;13.23;98096.19;5032416;23;20054;-79
2022/03/21 11:11:03;;;;;;;9.70;8.70;;;;;;;30.96;12.63;98089.19;4964666;23;20045;-81
2022/03/21 11:13:34;;;;;;;10.43;9.32;;;;;;;31.58;11.85;98084.22;4929453;23;20033;-81
2022/03/21 11:16:07;;;;;;;8.90;8.00;;;;;;;32.00;11.45;98091.69;4861640;29;20104;-81
2022/03/21 11:18:37;;;;;;;10.35;9.35;;;;;;;32.52;11.24;98085.75;4868401;29;20038;-81
2022/03/21 11:21:26;;;;;;;9.10;8.20;;;;;;;32.94;10.40;98079.53;4868093;29;20064;-82
2022/03/21 11:24:06;;;;;;;8.77;7.80;;;;;;;33.22;10.25;98077.81;4868165;29;20106;-81
2022/03/21 11:26:49;;;;;;;9.18;7.97;;;;;;;33.78;10.76;98072.59;4883784;23;20045;-83
2022/03/21 11:29:33;;;;;;;10.00;8.73;;;;;;;34.22;10.76;98076.69;4865481;29;20045;-83
2022/03/21 11:32:13;;;;;;;10.13;8.73;;;;;;;34.60;9.79;98071.88;4883897;29;20226;-83
2022/03/21 11:34:51;;;;;;;9.98;7.95;;;;;;;34.79;9.53;98077.22;4883075;29;20037;-83
2022/03/21 11:37:28;;;;;;;9.43;8.43;;;;;;;34.92;9.24;98072.03;4861812;29;20050;-82
2022/03/21 11:40:24;;;;;;;10.77;7.85;;;;;;;35.02;9.48;98060.97;4861381;29;20060;-82
2022/03/21 11:42:53;;;;;;;9.32;7.95;;;;;;;35.32;8.85;98064.13;4859380;29;20053;-81
2022/03/21 11:45:22;;;;;;;8.20;7.40;;;;;;;35.47;8.83;98066.47;4849084;29;20116;-81
2022/03/21 11:47:49;;;;;;;7.68;6.97;;;;;;;35.64;8.73;98068.50;4848236;29;20061;-81
2022/03/21 11:50:27;;;;;;;9.93;8.02;;;;;;;35.63;8.14;98059.56;4848394;29;20084;-81
2022/03/21 11:53:12;;;;;;;7.15;6.45;;;;;;;35.68;8.25;98064.84;4849481;29;20060;-82
2022/03/21 11:55:41;;;;;;;8.15;7.38;;;;;;;35.84;7.86;98065.28;4848782;29;20057;-81
2022/03/21 11:58:45;;;;;;;8.23;7.43;;;;;;;35.73;7.75;98063.13;4848044;29;20095;-81
2022/03/21 12:01:14;;;;;;;8.48;7.47;;;;;;;35.36;8.11;98059.66;4847669;29;20057;-81
2022/03/21 12:03:43;;;;;;;7.80;7.00;;;;;;;35.09;8.65;98047.78;4847475;29;20057;-81
2022/03/21 12:06:24;;;;;;;7.47;6.75;;;;;;;34.90;8.21;98047.16;4847176;29;20145;-82
2022/03/21 12:08:58;;;;;;;8.05;7.30;;;;;;;34.99;8.44;98050.75;4847662;29;20054;-81
2022/03/21 12:12:01;;;;;;;7.95;7.15;;;;;;;34.96;8.77;98040.50;4848056;29;20056;-81
2022/03/21 12:14:36;;;;;;;8.38;7.50;;;;;;;34.54;8.47;98037.06;4847092;29;20478;-81
2022/03/21 12:17:37;;;;;;;7.18;6.47;;;;;;;32.91;8.81;98031.47;4828634;29;20054;-81
2022/03/21 12:20:18;;;;;;;8.90;7.35;;;;;;;30.68;9.70;98024.13;4828563;29;20092;-82
2022/03/21 12:23:18;;;;;;;7.82;7.03;;;;;;;28.59;11.38;98017.81;4827816;29;20058;-83
2022/03/21 12:25:51;;;;;;;8.55;7.65;;;;;;;27.41;12.39;98010.94;4825203;29;20085;-88
2022/03/21 12:28:22;;;;;;;11.32;7.88;;;;;;;26.40;12.55;97999.72;4828220;29;20137;-81
2022/03/21 12:30:50;;;;;;;10.48;8.00;;;;;;;25.46;14.31;98001.34;4847908;29;20042;-84
2022/03/21 12:39:53;;;;;;;13.60;8.43;;;;;;;22.93;15.57;97994.69;5098285;24;20061;-79